sensor_id;sensor_type;location;lat;lon;timestamp;pressure;altitude;pressure_sealevel;temperature;humidity
63901;BME280;50538;53.482;10.294;2023-02-15T00:07:45;102615.91;;;4.43;100.00
63901;BME280;50538;53.482;10.294;2023-02-15T00:17:45;102616.91;;;4.40;100.00
63901;BME280;50538;53.482;10.294;2023-02-15T00:27:45;102621.41;;;4.38;100.00
63901;BME280;50538;53.482;10.294;2023-02-15T00:37:46;102610.97;;;4.37;100.00
63901;BME280;50538;53.482;10.294;2023-02-15T00:47:46;102592.78;;;4.32;100.00
63901;BME280;50538;53.482;10.294;2023-02-15T00:57:47;102587.84;;;4.26;100.00
63901;BME280;50538;53.482;10.294;2023-02-15T01:07:47;102586.31;;;4.22;100.00
63901;BME280;50538;53.482;10.294;2023-02-15T01:17:47;102575.09;;;4.18;100.00
63901;BME280;50538;53.482;10.294;2023-02-15T01:27:52;102560.25;;;4.17;100.00
63901;BME280;50538;53.482;10.294;2023-02-15T01:37:54;102552.63;;;4.13;100.00
63901;BME280;50538;53.482;10.294;2023-02-15T01:58:17;102545.16;;;4.05;100.00
63901;BME280;50538;53.482;10.294;2023-02-15T02:08:18;102530.47;;;4.01;100.00
63901;BME280;50538;53.482;10.294;2023-02-15T02:18:31;102530.53;;;3.99;100.00
63901;BME280;50538;53.482;10.294;2023-02-15T02:28:54;102519.41;;;3.94;100.00
63901;BME280;50538;53.482;10.294;2023-02-15T02:39:06;102509.13;;;3.90;100.00
63901;BME280;50538;53.482;10.294;2023-02-15T02:49:08;102493.84;;;3.81;100.00
63901;BME280;50538;53.482;10.294;2023-02-15T02:59:24;102482.88;;;3.73;100.00
63901;BME280;50538;53.482;10.294;2023-02-15T03:09:38;102484.88;;;3.67;100.00
63901;BME280;50538;53.482;10.294;2023-02-15T03:19:43;102473.53;;;3.67;100.00
63901;BME280;50538;53.482;10.294;2023-02-15T03:29:48;102446.72;;;3.60;100.00
63901;BME280;50538;53.482;10.294;2023-02-15T03:39:59;102442.59;;;3.56;100.00
63901;BME280;50538;53.482;10.294;2023-02-15T03:50:24;102437.88;;;3.46;100.00
63901;BME280;50538;53.482;10.294;2023-02-15T04:00:57;102435.72;;;3.37;100.00
63901;BME280;50538;53.482;10.294;2023-02-15T04:11:30;102446.06;;;3.22;100.00
63901;BME280;50538;53.482;10.294;2023-02-15T04:21:30;102435.16;;;3.13;100.00
63901;BME280;50538;53.482;10.294;2023-02-15T04:31:50;102422.41;;;3.05;100.00
63901;BME280;50538;53.482;10.294;2023-02-15T04:41:51;102410.78;;;2.93;99.74
63901;BME280;50538;53.482;10.294;2023-02-15T04:51:51;102413.00;;;2.84;99.70
63901;BME280;50538;53.482;10.294;2023-02-15T05:01:52;102400.19;;;2.78;99.82
63901;BME280;50538;53.482;10.294;2023-02-15T05:11:52;102398.56;;;2.75;99.53
63901;BME280;50538;53.482;10.294;2023-02-15T05:21:52;102387.75;;;2.64;98.86
63901;BME280;50538;53.482;10.294;2023-02-15T05:31:53;102383.28;;;2.47;98.69
63901;BME280;50538;53.482;10.294;2023-02-15T05:41:53;102360.47;;;2.32;98.65
63901;BME280;50538;53.482;10.294;2023-02-15T05:51:54;102377.31;;;2.26;99.39
63901;BME280;50538;53.482;10.294;2023-02-15T06:01:54;102380.78;;;2.27;99.34
63901;BME280;50538;53.482;10.294;2023-02-15T06:11:55;102364.38;;;2.23;99.51
63901;BME280;50538;53.482;10.294;2023-02-15T06:21:55;102361.75;;;2.23;99.77
63901;BME280;50538;53.482;10.294;2023-02-15T06:31:55;102365.66;;;2.15;99.64
63901;BME280;50538;53.482;10.294;2023-02-15T06:41:57;102350.50;;;2.02;99.18
63901;BME280;50538;53.482;10.294;2023-02-15T06:51:57;102368.13;;;1.99;99.74
63901;BME280;50538;53.482;10.294;2023-02-15T07:01:58;102372.56;;;1.97;99.36
63901;BME280;50538;53.482;10.294;2023-02-15T07:11:58;102369.09;;;1.96;99.69
63901;BME280;50538;53.482;10.294;2023-02-15T07:22:17;102357.00;;;1.94;99.39
63901;BME280;50538;53.482;10.294;2023-02-15T07:32:17;102349.41;;;1.88;99.30
63901;BME280;50538;53.482;10.294;2023-02-15T07:42:18;102340.97;;;1.83;99.30
63901;BME280;50538;53.482;10.294;2023-02-15T07:52:19;102325.00;;;1.87;99.85
63901;BME280;50538;53.482;10.294;2023-02-15T08:02:20;102317.63;;;1.95;100.00
63901;BME280;50538;53.482;10.294;2023-02-15T08:12:20;102316.50;;;2.01;99.61
63901;BME280;50538;53.482;10.294;2023-02-15T08:22:21;102309.97;;;2.10;99.55
63901;BME280;50538;53.482;10.294;2023-02-15T08:32:22;102309.97;;;2.10;98.82
63901;BME280;50538;53.482;10.294;2023-02-15T08:42:23;102300.34;;;2.10;98.79
63901;BME280;50538;53.482;10.294;2023-02-15T08:52:23;102303.81;;;2.11;98.65
63901;BME280;50538;53.482;10.294;2023-02-15T09:02:23;102290.66;;;2.12;98.99
63901;BME280;50538;53.482;10.294;2023-02-15T09:12:24;102288.66;;;2.17;99.42
63901;BME280;50538;53.482;10.294;2023-02-15T09:22:24;102281.06;;;2.30;99.87
63901;BME280;50538;53.482;10.294;2023-02-15T09:32:25;102270.56;;;2.47;99.77
63901;BME280;50538;53.482;10.294;2023-02-15T10:13:37;102286.03;;;3.03;99.27
63901;BME280;50538;53.482;10.294;2023-02-15T11:05:07;102254.34;;;3.88;98.23
63901;BME280;50538;53.482;10.294;2023-02-15T11:15:38;102250.44;;;3.95;98.58
63901;BME280;50538;53.482;10.294;2023-02-15T11:25:40;102247.63;;;4.14;98.59
63901;BME280;50538;53.482;10.294;2023-02-15T11:35:49;102221.66;;;4.38;98.33
63901;BME280;50538;53.482;10.294;2023-02-15T11:45:51;102208.88;;;4.62;98.37
63901;BME280;50538;53.482;10.294;2023-02-15T11:55:51;102196.94;;;4.85;97.84
63901;BME280;50538;53.482;10.294;2023-02-15T12:05:57;102186.44;;;4.99;96.12
63901;BME280;50538;53.482;10.294;2023-02-15T12:16:05;102175.88;;;5.27;96.30
63901;BME280;50538;53.482;10.294;2023-02-15T12:26:06;102167.84;;;5.43;95.57
63901;BME280;50538;53.482;10.294;2023-02-15T12:36:14;102156.09;;;5.76;94.60
63901;BME280;50538;53.482;10.294;2023-02-15T12:46:24;102146.31;;;5.90;93.43
63901;BME280;50538;53.482;10.294;2023-02-15T12:56:26;102127.53;;;5.95;93.15
63901;BME280;50538;53.482;10.294;2023-02-15T13:06:29;102122.50;;;6.05;93.03
63901;BME280;50538;53.482;10.294;2023-02-15T13:16:34;102115.47;;;6.18;92.99
63901;BME280;50538;53.482;10.294;2023-02-15T13:26:35;102115.28;;;6.33;93.08
63901;BME280;50538;53.482;10.294;2023-02-15T13:36:56;102092.91;;;6.64;92.82
63901;BME280;50538;53.482;10.294;2023-02-15T13:47:23;102079.28;;;6.83;92.28
63901;BME280;50538;53.482;10.294;2023-02-15T13:57:39;102073.97;;;7.20;90.43
63901;BME280;50538;53.482;10.294;2023-02-15T14:08:11;102061.16;;;7.26;89.72
63901;BME280;50538;53.482;10.294;2023-02-15T14:18:36;102053.50;;;7.11;89.91
63901;BME280;50538;53.482;10.294;2023-02-15T14:28:49;102049.59;;;7.16;91.01
63901;BME280;50538;53.482;10.294;2023-02-15T14:39:23;102042.50;;;7.41;91.08
63901;BME280;50538;53.482;10.294;2023-02-15T14:49:44;102044.47;;;7.50;90.30
63901;BME280;50538;53.482;10.294;2023-02-15T14:59:56;102043.84;;;7.46;90.01
63901;BME280;50538;53.482;10.294;2023-02-15T15:10:33;102031.44;;;7.36;90.74
63901;BME280;50538;53.482;10.294;2023-02-15T15:20:39;102022.00;;;7.20;91.75
63901;BME280;50538;53.482;10.294;2023-02-15T15:51:00;102028.81;;;6.50;91.77
63901;BME280;50538;53.482;10.294;2023-02-15T16:01:05;102020.22;;;6.10;92.61
63901;BME280;50538;53.482;10.294;2023-02-15T16:11:13;102013.56;;;5.79;93.76
63901;BME280;50538;53.482;10.294;2023-02-15T16:21:22;102020.66;;;5.51;94.50
63901;BME280;50538;53.482;10.294;2023-02-15T16:31:23;102009.34;;;5.24;94.71
63901;BME280;50538;53.482;10.294;2023-02-15T16:41:28;102006.28;;;5.03;95.08
63901;BME280;50538;53.482;10.294;2023-02-15T16:51:31;101996.28;;;4.81;95.28
63901;BME280;50538;53.482;10.294;2023-02-15T17:01:36;101989.59;;;4.63;95.02
63901;BME280;50538;53.482;10.294;2023-02-15T17:11:40;101992.53;;;4.44;95.39
63901;BME280;50538;53.482;10.294;2023-02-15T17:21:48;101958.81;;;4.22;96.66
63901;BME280;50538;53.482;10.294;2023-02-15T17:31:51;101952.94;;;4.05;97.31
63901;BME280;50538;53.482;10.294;2023-02-15T17:41:54;101976.47;;;3.92;97.98
63901;BME280;50538;53.482;10.294;2023-02-15T17:51:54;101976.28;;;3.81;98.65
63901;BME280;50538;53.482;10.294;2023-02-15T18:01:54;101961.16;;;3.70;98.34
63901;BME280;50538;53.482;10.294;2023-02-15T18:12:26;101972.50;;;3.56;98.45
63901;BME280;50538;53.482;10.294;2023-02-15T18:22:27;101979.81;;;3.51;98.35
63901;BME280;50538;53.482;10.294;2023-02-15T18:32:32;101976.78;;;3.43;98.37
63901;BME280;50538;53.482;10.294;2023-02-15T18:42:34;101974.00;;;3.30;98.30
63901;BME280;50538;53.482;10.294;2023-02-15T18:52:36;101954.47;;;3.20;98.46
63901;BME280;50538;53.482;10.294;2023-02-15T19:02:37;101944.00;;;3.05;97.88
63901;BME280;50538;53.482;10.294;2023-02-15T19:12:37;101946.34;;;2.95;97.75
63901;BME280;50538;53.482;10.294;2023-02-15T19:22:38;101933.75;;;2.86;98.02
63901;BME280;50538;53.482;10.294;2023-02-15T19:32:38;101933.75;;;2.86;99.17
63901;BME280;50538;53.482;10.294;2023-02-15T19:42:39;101934.31;;;2.91;100.00
63901;BME280;50538;53.482;10.294;2023-02-15T19:52:39;101913.94;;;2.80;100.00
63901;BME280;50538;53.482;10.294;2023-02-15T20:02:40;101908.13;;;2.75;99.87
63901;BME280;50538;53.482;10.294;2023-02-15T20:12:40;101905.84;;;2.69;100.00
63901;BME280;50538;53.482;10.294;2023-02-15T20:22:43;101928.59;;;2.68;100.00
63901;BME280;50538;53.482;10.294;2023-02-15T20:32:45;101936.38;;;2.70;100.00
63901;BME280;50538;53.482;10.294;2023-02-15T20:42:46;101923.00;;;2.75;100.00
63901;BME280;50538;53.482;10.294;2023-02-15T20:52:48;101908.44;;;2.85;100.00
63901;BME280;50538;53.482;10.294;2023-02-15T21:02:51;101909.88;;;2.90;100.00
63901;BME280;50538;53.482;10.294;2023-02-15T21:12:52;101898.63;;;2.88;100.00
63901;BME280;50538;53.482;10.294;2023-02-15T21:22:54;101887.72;;;2.80;100.00
63901;BME280;50538;53.482;10.294;2023-02-15T21:32:55;101888.06;;;2.74;100.00
63901;BME280;50538;53.482;10.294;2023-02-15T21:42:56;101892.91;;;2.66;100.00
63901;BME280;50538;53.482;10.294;2023-02-15T21:53:20;101888.09;;;2.58;100.00
63901;BME280;50538;53.482;10.294;2023-02-15T22:03:22;101882.84;;;2.58;100.00
63901;BME280;50538;53.482;10.294;2023-02-15T22:13:31;101876.84;;;2.56;100.00
63901;BME280;50538;53.482;10.294;2023-02-15T22:23:33;101885.22;;;2.47;100.00
63901;BME280;50538;53.482;10.294;2023-02-15T22:33:33;101881.34;;;2.39;100.00
63901;BME280;50538;53.482;10.294;2023-02-15T22:53:34;101869.84;;;2.25;100.00
63901;BME280;50538;53.482;10.294;2023-02-15T23:03:34;101873.81;;;2.17;100.00
63901;BME280;50538;53.482;10.294;2023-02-15T23:13:35;101862.06;;;2.08;100.00
63901;BME280;50538;53.482;10.294;2023-02-15T23:23:38;101851.16;;;2.00;100.00
63901;BME280;50538;53.482;10.294;2023-02-15T23:33:39;101840.31;;;1.90;100.00
63901;BME280;50538;53.482;10.294;2023-02-15T23:43:42;101840.00;;;1.81;100.00
63901;BME280;50538;53.482;10.294;2023-02-15T23:53:43;101844.72;;;1.74;100.00
